Aviation Digital Data Service (ADDS)

Output produced by TAFs form (1228 UTC 25 July 2017)
found at http://www.aviationweather.gov/adds/tafs/
 
METAR text: RJDT 251100Z 04010G22KT 350V080 9999 FEW004 SCT006 BKN010 26/24 Q1005
Conditions at: RJDT (TSUSHIMA AIRPORT, JP) observed 1100 UTC 25 July 2017
Temperature: 26.0°C (79°F)
Dewpoint: 24.0°C (75°F) [RH = 89%]
Pressure (altimeter): 29.68 inches Hg (1005.0 mb)
Winds: from the NE (40 degrees) at 12 MPH (10 knots; 5.2 m/s)
gusting to 25 MPH (22 knots; 11.4 m/s)
Visibility: 6 or more miles (10+ km)
Ceiling: 1000 feet AGL
Clouds: few clouds at 400 feet AGL
scattered clouds at 600 feet AGL
broken clouds at 1000 feet AGL
Weather: no significant weather observed at this time